Time;durP1;ratioP1;P1;durP2;ratioP2;P2;SDS_P1;SDS_P2;PMS_P1;PMS_P2;Temp;Humidity;BMP_temperature;BMP_pressure;BME280_temperature;BME280_humidity;BME280_pressure;Samples;Min_cycle;Max_cycle;Signal;HPM_P1;HPM_P2
2023/01/06 00:00:14;;;;;;;18.50;8.77;;;14.50;63.90;;;;;;6309866;28;20405;-73
2023/01/06 00:03:15;;;;;;;15.70;7.32;;;14.50;64.00;;;;;;6289949;28;20040;-71
2023/01/06 00:06:17;;;;;;;19.85;8.75;;;14.50;64.30;;;;;;6287274;28;20503;-72
2023/01/06 00:09:18;;;;;;;19.40;9.10;;;14.40;64.30;;;;;;6292074;28;20033;-74
2023/01/06 00:12:19;;;;;;;18.65;8.52;;;14.50;64.40;;;;;;6291203;28;20037;-73
2023/01/06 00:15:20;;;;;;;19.40;8.85;;;14.50;64.50;;;;;;6281654;28;20472;-73
2023/01/06 00:18:21;;;;;;;17.75;9.10;;;14.50;64.50;;;;;;6290359;28;20036;-73
2023/01/06 00:21:22;;;;;;;22.80;9.00;;;14.40;64.50;;;;;;6289194;28;20422;-73
2023/01/06 00:24:23;;;;;;;27.52;9.63;;;14.40;64.60;;;;;;6288440;28;20042;-74
2023/01/06 00:27:24;;;;;;;21.23;8.63;;;14.40;64.70;;;;;;6301380;28;20036;-73
2023/01/06 00:30:26;;;;;;;17.13;7.70;;;14.40;64.80;;;;;;6298884;28;20391;-73
2023/01/06 00:33:28;;;;;;;21.55;8.18;;;14.30;64.90;;;;;;6282343;28;20052;-73
2023/01/06 00:36:29;;;;;;;23.52;9.50;;;14.30;65.00;;;;;;6284285;28;20036;-72
2023/01/06 00:39:30;;;;;;;20.95;8.93;;;14.30;65.10;;;;;;6295202;28;20040;-73
2023/01/06 00:42:31;;;;;;;19.23;8.15;;;14.30;65.20;;;;;;6271622;28;20170;-73
2023/01/06 00:45:32;;;;;;;20.70;8.82;;;14.30;65.30;;;;;;6286627;28;20132;-72
2023/01/06 00:48:32;;;;;;;20.00;8.75;;;14.20;65.40;;;;;;6283218;28;20050;-72
2023/01/06 00:51:38;;;;;;;17.35;8.50;;;14.20;65.60;;;;;;6291899;28;20070;-72
2023/01/06 00:54:39;;;;;;;18.58;9.45;;;14.20;65.80;;;;;;6285198;28;20063;-72
2023/01/06 00:57:40;;;;;;;19.58;8.70;;;14.20;65.80;;;;;;6307023;28;20165;-72
2023/01/06 01:00:41;;;;;;;14.63;7.65;;;14.20;65.90;;;;;;6271501;28;20053;-73
2023/01/06 01:03:42;;;;;;;20.73;8.73;;;14.20;65.90;;;;;;6273295;28;20072;-73
2023/01/06 01:06:45;;;;;;;19.25;8.48;;;14.20;65.90;;;;;;6271618;28;20041;-73
2023/01/06 01:09:46;;;;;;;21.38;9.73;;;14.20;65.90;;;;;;6291374;28;20351;-75
2023/01/06 01:12:47;;;;;;;18.33;8.23;;;14.20;65.90;;;;;;6256663;28;20036;-74
2023/01/06 01:15:48;;;;;;;16.77;7.93;;;14.20;65.90;;;;;;6289811;28;20071;-72
2023/01/06 01:18:49;;;;;;;22.35;7.75;;;14.20;65.90;;;;;;6273072;28;20106;-73
2023/01/06 01:21:50;;;;;;;20.60;8.85;;;14.10;65.90;;;;;;6271094;28;20048;-72
2023/01/06 01:24:51;;;;;;;20.33;8.48;;;14.10;66.00;;;;;;6270277;28;20076;-72
2023/01/06 01:27:52;;;;;;;17.17;8.55;;;14.10;66.10;;;;;;6272324;28;20043;-74
2023/01/06 01:31:01;;;;;;;20.05;8.48;;;14.00;66.10;;;;;;6261114;28;20517;-72
2023/01/06 01:34:02;;;;;;;15.30;8.70;;;14.00;66.30;;;;;;6285462;28;20037;-71
2023/01/06 01:37:04;;;;;;;20.02;8.82;;;14.00;66.40;;;;;;6275279;28;20048;-71
2023/01/06 01:40:05;;;;;;;18.15;8.35;;;13.90;66.40;;;;;;6281744;28;20056;-71
2023/01/06 01:43:10;;;;;;;18.10;8.40;;;13.90;66.60;;;;;;6287540;28;20037;-71
2023/01/06 01:46:12;;;;;;;16.77;8.20;;;13.80;66.60;;;;;;6311265;28;20074;-72
2023/01/06 01:49:22;;;;;;;19.63;8.50;;;13.90;66.80;;;;;;6277388;28;20040;-72
2023/01/06 01:52:23;;;;;;;23.15;8.23;;;13.80;66.80;;;;;;6291695;28;20037;-73
2023/01/06 01:55:27;;;;;;;16.27;7.85;;;13.80;66.80;;;;;;6272957;28;20036;-71
2023/01/06 01:58:41;;;;;;;18.83;8.88;;;13.80;66.80;;;;;;6278693;28;20477;-72
2023/01/06 02:01:43;;;;;;;19.58;7.95;;;13.80;66.60;;;;;;6280406;28;20048;-73
2023/01/06 02:04:48;;;;;;;19.38;7.25;;;13.90;66.50;;;;;;6290789;28;20473;-72
2023/01/06 02:07:51;;;;;;;14.15;6.45;;;13.90;66.40;;;;;;6291399;28;20047;-72
2023/01/06 02:10:52;;;;;;;16.05;6.88;;;13.90;66.30;;;;;;6292213;28;20029;-73
2023/01/06 02:14:06;;;;;;;19.63;7.15;;;13.90;66.30;;;;;;6291535;28;20029;-73
2023/01/06 02:17:21;;;;;;;14.63;7.03;;;13.90;66.30;;;;;;6292427;28;20094;-72
2023/01/06 02:20:34;;;;;;;16.20;6.97;;;13.80;66.00;;;;;;6291660;28;20091;-73
2023/01/06 02:24:04;;;;;;;15.70;6.60;;;13.80;66.00;;;;;;6286323;28;20040;-73
2023/01/06 02:27:12;;;;;;;;;;;13.70;66.10;;;;;;6292152;28;20521;-73
2023/01/06 02:30:46;;;;;;;16.05;6.15;;;13.60;66.30;;;;;;6273774;28;19913;-72
2023/01/06 02:34:12;;;;;;;16.40;6.90;;;13.60;66.40;;;;;;6241021;28;20037;-72
2023/01/06 02:37:27;;;;;;;19.10;7.38;;;13.60;66.40;;;;;;6211139;28;20072;-72
2023/01/06 02:40:47;;;;;;;17.23;6.10;;;13.60;66.40;;;;;;6225792;28;20057;-73
2023/01/06 02:44:02;;;;;;;13.50;6.22;;;13.60;66.30;;;;;;6224787;28;20054;-73
2023/01/06 02:47:18;;;;;;;14.85;6.13;;;13.60;66.20;;;;;;6239717;28;20045;-72
2023/01/06 02:50:38;;;;;;;14.27;6.38;;;13.60;66.30;;;;;;6220703;28;20546;-73
2023/01/06 02:54:14;;;;;;;12.18;6.13;;;13.60;66.10;;;;;;6222371;28;20037;-73
2023/01/06 02:57:27;;;;;;;17.58;6.10;;;13.60;66.00;;;;;;6193311;28;20135;-73
2023/01/06 03:00:44;;;;;;;14.52;6.70;;;13.60;65.80;;;;;;6224607;28;20482;-73
2023/01/06 03:03:51;;;;;;;12.50;6.50;;;13.70;65.80;;;;;;6197078;28;20061;-72
2023/01/06 03:06:56;;;;;;;16.02;7.35;;;13.60;65.70;;;;;;6222994;28;20119;-73
2023/01/06 03:10:00;;;;;;;12.98;5.88;;;13.60;65.80;;;;;;6260827;28;20062;-73
2023/01/06 03:13:07;;;;;;;17.00;6.70;;;13.50;66.00;;;;;;6295607;28;20361;-73
2023/01/06 03:16:08;;;;;;;21.98;7.35;;;13.40;66.10;;;;;;6298967;28;20052;-73
2023/01/06 03:19:10;;;;;;;13.23;6.22;;;13.40;66.20;;;;;;6315145;28;20046;-72
2023/01/06 03:22:12;;;;;;;11.10;5.68;;;13.40;66.10;;;;;;6316318;28;20028;-72
2023/01/06 03:25:13;;;;;;;16.10;6.43;;;13.40;66.20;;;;;;6297437;28;20032;-72
2023/01/06 03:28:16;;;;;;;14.45;6.68;;;13.40;66.20;;;;;;6300604;28;20111;-72
2023/01/06 03:31:59;;;;;;;14.20;6.43;;;13.40;66.20;;;;;;6317846;28;20484;-72
2023/01/06 03:35:49;;;;;;;13.65;7.38;;;13.40;66.20;;;;;;6196575;28;20069;-72
2023/01/06 03:38:54;;;;;;;11.73;5.63;;;13.30;66.20;;;;;;6095000;29;20145;-73
2023/01/06 03:45:56;;;;;;;13.45;6.75;;;13.30;66.60;;;;;;6074009;29;20040;-72
2023/01/06 03:49:17;;;;;;;21.33;6.32;;;13.30;66.30;;;;;;6095303;29;20040;-72
2023/01/06 03:52:25;;;;;;;15.65;7.28;;;13.30;66.30;;;;;;6095921;29;20178;-73
2023/01/06 03:55:32;;;;;;;14.30;6.10;;;13.30;66.30;;;;;;6080085;29;20074;-73
2023/01/06 03:58:36;;;;;;;12.23;6.20;;;13.30;66.20;;;;;;6111726;29;20055;-73
2023/01/06 04:01:42;;;;;;;13.40;6.53;;;13.30;66.00;;;;;;6121360;29;20044;-72
2023/01/06 04:04:43;;;;;;;11.32;6.32;;;13.40;65.90;;;;;;6104096;29;20129;-72
2023/01/06 04:07:46;;;;;;;19.90;6.60;;;13.30;65.70;;;;;;6122015;29;20384;-72
2023/01/06 04:10:48;;;;;;;15.25;6.25;;;13.30;65.70;;;;;;6126363;28;20039;-73
2023/01/06 04:13:50;;;;;;;15.23;5.88;;;13.30;65.70;;;;;;6168980;28;20487;-72
2023/01/06 04:16:51;;;;;;;14.98;6.15;;;13.30;65.80;;;;;;6289757;28;20048;-72
2023/01/06 04:19:52;;;;;;;11.93;5.97;;;13.30;65.70;;;;;;6273942;28;20072;-72
2023/01/06 04:22:56;;;;;;;22.38;6.00;;;13.30;65.50;;;;;;6255796;28;20083;-72
2023/01/06 04:25:58;;;;;;;13.40;5.75;;;13.30;65.40;;;;;;6276903;28;20041;-74
2023/01/06 04:29:06;;;;;;;14.32;6.28;;;13.30;65.40;;;;;;6274647;28;20127;-73
2023/01/06 04:32:07;;;;;;;14.73;6.95;;;13.30;65.40;;;;;;6269655;28;20041;-73
2023/01/06 04:35:09;;;;;;;12.50;5.93;;;13.20;65.30;;;;;;6276594;28;20043;-72
2023/01/06 04:38:10;;;;;;;15.63;6.13;;;13.20;65.40;;;;;;6275509;28;20040;-73
2023/01/06 04:41:11;;;;;;;13.18;5.50;;;13.20;65.40;;;;;;6275045;28;20469;-73
2023/01/06 04:44:12;;;;;;;11.32;5.53;;;13.30;65.40;;;;;;6265481;28;20071;-73
2023/01/06 04:47:13;;;;;;;11.43;5.78;;;13.30;65.20;;;;;;6257809;28;20484;-73
2023/01/06 04:50:14;;;;;;;14.02;6.22;;;13.30;66.00;;;;;;6273990;28;20036;-73
2023/01/06 04:53:15;;;;;;;13.63;5.78;;;13.20;65.10;;;;;;6259695;28;20103;-74
2023/01/06 04:56:16;;;;;;;12.57;5.97;;;13.30;65.00;;;;;;6275228;28;20048;-73
2023/01/06 04:59:17;;;;;;;11.90;5.97;;;13.30;64.90;;;;;;6313106;28;20051;-73
2023/01/06 05:02:17;;;;;;;12.52;6.00;;;13.30;64.90;;;;;;6280169;28;20037;-73
2023/01/06 05:05:18;;;;;;;10.77;6.13;;;13.30;64.70;;;;;;6317064;28;20039;-73
2023/01/06 05:08:19;;;;;;;12.25;5.88;;;13.40;64.80;;;;;;6297599;28;20032;-73
2023/01/06 05:11:22;;;;;;;9.52;5.43;;;13.30;64.40;;;;;;6315524;28;21981;-72
2023/01/06 05:14:23;;;;;;;13.30;6.03;;;13.40;64.40;;;;;;6316274;28;20051;-72
2023/01/06 05:17:25;;;;;;;14.63;5.68;;;13.30;64.40;;;;;;6314350;28;20032;-71
2023/01/06 05:20:25;;;;;;;11.75;5.95;;;13.30;64.40;;;;;;6312486;28;20055;-73
2023/01/06 05:23:26;;;;;;;13.57;5.88;;;13.30;64.20;;;;;;6298213;28;20051;-71
2023/01/06 05:26:28;;;;;;;13.75;5.03;;;13.20;64.20;;;;;;6316513;28;20055;-72
2023/01/06 05:29:29;;;;;;;15.73;5.10;;;13.20;65.20;;;;;;6315498;28;20047;-73
2023/01/06 05:32:29;;;;;;;8.35;4.55;;;13.20;64.40;;;;;;6314508;28;20040;-73
2023/01/06 05:35:30;;;;;;;14.68;5.28;;;13.20;64.20;;;;;;6297133;28;20032;-71
2023/01/06 05:38:31;;;;;;;11.15;4.85;;;13.20;65.00;;;;;;6298472;28;20078;-72
2023/01/06 05:41:32;;;;;;;12.77;5.32;;;13.20;64.00;;;;;;6281067;28;20044;-72
2023/01/06 05:44:33;;;;;;;11.07;5.38;;;13.20;63.90;;;;;;6315598;28;20101;-73
2023/01/06 05:47:34;;;;;;;14.75;5.20;;;13.10;63.90;;;;;;6288796;28;20032;-73
2023/01/06 05:50:35;;;;;;;8.20;4.90;;;13.20;63.80;;;;;;6299279;28;20127;-73
2023/01/06 05:53:38;;;;;;;10.95;4.90;;;13.20;63.70;;;;;;6317692;28;20130;-72
2023/01/06 05:56:39;;;;;;;17.83;4.80;;;13.20;63.60;;;;;;6314630;28;20032;-73
2023/01/06 05:59:40;;;;;;;12.82;4.63;;;13.20;63.60;;;;;;6316488;28;20350;-73
2023/01/06 06:02:40;;;;;;;12.52;3.80;;;13.30;63.50;;;;;;6281775;28;20044;-74
2023/01/06 06:05:41;;;;;;;10.10;5.25;;;13.20;63.20;;;;;;6296926;28;20040;-73
2023/01/06 06:08:42;;;;;;;10.07;4.45;;;13.20;63.20;;;;;;6297667;28;20036;-72
2023/01/06 06:11:43;;;;;;;7.45;3.92;;;13.20;63.10;;;;;;6294994;28;20036;-71
2023/01/06 06:14:44;;;;;;;12.98;5.25;;;13.20;62.80;;;;;;6315429;28;20097;-72
2023/01/06 06:17:44;;;;;;;10.57;5.05;;;13.20;62.70;;;;;;6312010;28;20346;-73
2023/01/06 06:20:45;;;;;;;10.27;4.80;;;13.20;62.60;;;;;;6282593;28;20091;-71
2023/01/06 06:23:47;;;;;;;11.30;4.93;;;13.20;62.50;;;;;;6297840;28;20265;-73
2023/01/06 06:26:47;;;;;;;10.27;5.18;;;13.20;62.60;;;;;;6280290;28;20127;-73
2023/01/06 06:29:48;;;;;;;8.73;4.68;;;13.10;62.60;;;;;;6297662;28;20050;-73
2023/01/06 06:32:49;;;;;;;8.57;4.47;;;13.10;62.50;;;;;;6297610;28;20032;-72
2023/01/06 06:35:57;;;;;;;9.20;5.03;;;13.10;62.50;;;;;;6298675;28;20037;-72
2023/01/06 06:38:59;;;;;;;21.58;4.50;;;13.10;62.20;;;;;;6314569;28;20040;-73
2023/01/06 06:42:00;;;;;;;12.77;5.38;;;13.10;62.00;;;;;;6296991;28;20056;-73
2023/01/06 06:45:01;;;;;;;10.70;4.40;;;13.10;61.90;;;;;;6315362;28;20055;-73
2023/01/06 06:48:01;;;;;;;11.10;5.13;;;13.10;61.80;;;;;;6315062;28;20119;-72
2023/01/06 06:51:15;;;;;;;7.50;4.63;;;13.10;61.80;;;;;;6298020;28;20040;-72
2023/01/06 06:54:16;;;;;;;12.10;4.85;;;13.10;61.60;;;;;;6279081;28;20036;-73
2023/01/06 06:57:17;;;;;;;12.07;4.68;;;13.10;61.60;;;;;;6296960;28;20056;-73
2023/01/06 07:00:18;;;;;;;10.68;4.40;;;13.00;61.60;;;;;;6295975;28;20037;-73
2023/01/06 07:03:19;;;;;;;12.73;4.30;;;13.10;61.60;;;;;;6300672;28;20060;-73
2023/01/06 07:06:23;;;;;;;10.88;3.63;;;13.10;61.40;;;;;;6315871;28;20036;-73
2023/01/06 07:09:24;;;;;;;11.93;4.65;;;13.10;61.40;;;;;;6317424;28;20118;-74
2023/01/06 07:12:24;;;;;;;14.57;5.13;;;13.10;61.20;;;;;;6316434;28;20040;-72
2023/01/06 07:15:25;;;;;;;12.88;4.53;;;13.10;61.10;;;;;;6317990;28;20052;-72
2023/01/06 07:18:26;;;;;;;8.57;4.40;;;13.10;60.90;;;;;;6302043;28;20108;-73
2023/01/06 07:21:27;;;;;;;7.78;3.60;;;13.20;60.80;;;;;;6317218;28;20075;-73
2023/01/06 07:24:28;;;;;;;10.75;4.50;;;13.10;60.50;;;;;;6299943;28;20055;-73
2023/01/06 07:27:28;;;;;;;9.23;4.13;;;13.10;60.20;;;;;;6302501;28;20372;-73
2023/01/06 07:30:30;;;;;;;10.25;4.43;;;13.10;60.20;;;;;;6301135;28;20044;-73
2023/01/06 07:33:30;;;;;;;11.30;4.28;;;13.10;60.40;;;;;;6301538;28;20051;-72
2023/01/06 07:36:31;;;;;;;11.38;5.20;;;13.00;60.20;;;;;;6302316;28;20404;-72
2023/01/06 07:39:33;;;;;;;8.73;3.92;;;13.00;60.10;;;;;;6319549;28;20127;-73
2023/01/06 07:42:37;;;;;;;9.13;4.35;;;12.90;60.20;;;;;;6319621;28;20064;-73
2023/01/06 07:45:38;;;;;;;12.10;4.88;;;12.90;60.50;;;;;;6300156;28;20036;-73
2023/01/06 07:48:39;;;;;;;8.68;3.97;;;12.90;60.50;;;;;;6299603;28;20036;-73
2023/01/06 07:51:39;;;;;;;9.95;4.88;;;13.00;60.60;;;;;;6317650;28;20479;-74
2023/01/06 07:54:40;;;;;;;20.10;4.10;;;13.00;60.50;;;;;;6315970;28;20115;-73
2023/01/06 07:57:41;;;;;;;13.40;4.43;;;13.00;60.20;;;;;;6315174;28;20063;-73
2023/01/06 08:00:43;;;;;;;11.60;4.75;;;13.10;60.10;;;;;;6283518;28;20147;-73
2023/01/06 08:03:46;;;;;;;17.50;5.50;;;13.10;60.00;;;;;;6300275;28;20475;-73
2023/01/06 08:06:53;;;;;;;10.73;4.60;;;13.10;60.10;;;;;;6289805;28;20040;-73
2023/01/06 08:09:54;;;;;;;11.00;4.63;;;13.10;60.10;;;;;;6318887;28;20036;-73
2023/01/06 08:12:55;;;;;;;13.90;3.97;;;13.10;60.10;;;;;;6284076;28;20047;-74
2023/01/06 08:15:57;;;;;;;10.88;4.72;;;13.20;60.20;;;;;;6319469;28;20040;-73
2023/01/06 08:18:58;;;;;;;8.25;4.45;;;13.20;60.00;;;;;;6302633;28;20062;-74
2023/01/06 08:21:58;;;;;;;13.77;5.20;;;13.20;59.90;;;;;;6300189;28;20076;-73
2023/01/06 08:24:59;;;;;;;8.55;4.45;;;13.20;59.90;;;;;;6301770;28;20145;-73
2023/01/06 08:28:01;;;;;;;12.80;4.40;;;13.30;60.00;;;;;;6319015;28;20066;-73
2023/01/06 08:31:02;;;;;;;11.63;5.22;;;13.40;59.90;;;;;;6301352;28;20044;-73
2023/01/06 08:34:03;;;;;;;9.40;4.07;;;13.40;59.60;;;;;;6303033;28;20097;-73
2023/01/06 08:37:04;;;;;;;11.82;5.00;;;13.40;59.50;;;;;;6318762;28;20295;-74
2023/01/06 08:40:05;;;;;;;28.05;4.95;;;13.40;59.30;;;;;;6300840;28;20377;-75
2023/01/06 08:43:06;;;;;;;8.10;3.95;;;13.40;59.30;;;;;;6300703;28;20521;-74
2023/01/06 08:46:10;;;;;;;10.93;3.97;;;13.50;59.30;;;;;;6319095;28;20062;-71
2023/01/06 08:49:10;;;;;;;8.45;3.97;;;13.50;59.20;;;;;;6317718;28;20113;-72
2023/01/06 08:52:11;;;;;;;11.48;4.20;;;13.60;59.10;;;;;;6317862;28;20280;-72
2023/01/06 08:55:12;;;;;;;7.72;3.67;;;13.60;58.80;;;;;;6298807;28;20119;-74
2023/01/06 08:58:13;;;;;;;10.88;4.68;;;13.70;58.60;;;;;;6316693;28;20113;-74
2023/01/06 09:01:18;;;;;;;21.30;7.07;;;13.70;58.50;;;;;;6298564;28;20055;-73
2023/01/06 09:04:19;;;;;;;12.60;5.75;;;13.70;58.40;;;;;;6283376;28;20040;-73
2023/01/06 09:07:20;;;;;;;11.77;5.57;;;13.70;58.40;;;;;;6299511;28;20036;-74
2023/01/06 09:10:21;;;;;;;11.75;4.85;;;13.70;58.30;;;;;;6302081;28;20113;-74
2023/01/06 09:13:22;;;;;;;9.82;4.03;;;13.70;58.20;;;;;;6317569;28;20482;-74
2023/01/06 09:16:22;;;;;;;14.05;4.75;;;13.70;58.20;;;;;;6301373;28;20039;-74
2023/01/06 09:19:23;;;;;;;11.85;4.85;;;13.70;58.30;;;;;;6318152;28;20028;-74
2023/01/06 09:22:24;;;;;;;8.35;4.05;;;13.80;58.20;;;;;;6301328;28;20093;-73
2023/01/06 09:25:25;;;;;;;12.02;5.28;;;13.80;58.20;;;;;;6300999;28;20111;-73
2023/01/06 09:28:26;;;;;;;15.57;3.50;;;13.90;58.00;;;;;;6282759;28;20507;-72
2023/01/06 09:31:27;;;;;;;20.45;6.20;;;13.90;57.90;;;;;;6318599;28;20142;-72
2023/01/06 09:34:28;;;;;;;12.95;4.53;;;14.00;58.20;;;;;;6302158;28;20036;-72
2023/01/06 09:37:29;;;;;;;16.30;5.07;;;14.10;57.30;;;;;;6300495;28;20028;-71
2023/01/06 09:40:40;;;;;;;8.55;4.18;;;14.00;57.20;;;;;;6316822;28;20105;-73
2023/01/06 09:44:04;;;;;;;11.07;4.15;;;14.00;57.10;;;;;;6299961;28;20047;-73
2023/01/06 09:47:10;;;;;;;13.40;5.35;;;14.00;57.00;;;;;;6299733;28;20115;-74
2023/01/06 09:50:38;;;;;;;13.73;5.97;;;14.00;56.80;;;;;;6316389;28;20101;-73
2023/01/06 09:53:53;;;;;;;24.75;7.57;;;13.90;56.80;;;;;;6298544;28;20036;-73
2023/01/06 09:57:04;;;;;;;21.33;7.93;;;14.00;56.90;;;;;;6314249;28;20043;-73
2023/01/06 10:00:21;;;;;;;19.08;7.70;;;14.10;56.90;;;;;;6279204;28;20363;-73
2023/01/06 10:03:26;;;;;;;11.80;4.72;;;14.10;56.80;;;;;;6273270;28;20120;-73
2023/01/06 10:06:44;;;;;;;9.70;4.35;;;14.10;57.30;;;;;;6273881;28;20128;-73
2023/01/06 10:09:57;;;;;;;10.27;4.47;;;14.20;56.50;;;;;;6291124;28;20032;-73
2023/01/06 10:13:25;;;;;;;14.68;6.85;;;14.20;56.50;;;;;;6289533;28;20060;-73
2023/01/06 10:16:43;;;;;;;11.70;4.63;;;14.20;56.60;;;;;;6308065;28;20032;-73
2023/01/06 10:20:11;;;;;;;17.85;7.10;;;14.30;56.70;;;;;;6277086;28;20055;-72
2023/01/06 10:23:45;;;;;;;15.93;6.85;;;14.30;56.50;;;;;;6290632;28;20779;-74
2023/01/06 10:26:57;;;;;;;20.90;6.07;;;14.40;56.60;;;;;;6248780;28;20048;-72
2023/01/06 10:30:00;;;;;;;15.75;6.78;;;14.60;56.50;;;;;;6263248;28;20121;-73
2023/01/06 10:33:03;;;;;;;16.27;5.65;;;14.70;56.40;;;;;;6274764;28;20148;-73
2023/01/06 10:36:11;;;;;;;15.27;5.63;;;14.80;56.20;;;;;;6273293;28;20048;-73
2023/01/06 10:39:18;;;;;;;15.25;6.93;;;15.00;56.10;;;;;;6278742;28;20533;-74
2023/01/06 10:42:56;;;;;;;19.60;7.88;;;15.10;55.90;;;;;;6265087;28;20102;-74
2023/01/06 10:45:57;;;;;;;17.05;7.47;;;15.20;55.50;;;;;;6241825;28;20036;-73
2023/01/06 10:48:58;;;;;;;20.60;7.88;;;15.30;55.20;;;;;;6231925;28;20037;-73
2023/01/06 10:52:02;;;;;;;29.15;10.95;;;15.20;55.00;;;;;;6262432;28;20122;-72
2023/01/06 10:55:05;;;;;;;23.63;7.20;;;15.20;55.00;;;;;;6226868;28;20037;-72
2023/01/06 10:58:30;;;;;;;21.50;6.63;;;15.10;55.10;;;;;;6261718;28;20130;-74
2023/01/06 11:01:32;;;;;;;25.23;10.50;;;15.00;55.30;;;;;;6290149;28;20329;-72
2023/01/06 11:04:33;;;;;;;34.95;10.57;;;14.90;55.50;;;;;;6296828;28;20043;-73
2023/01/06 11:07:34;;;;;;;28.08;9.18;;;14.80;55.60;;;;;;6302828;28;20326;-73
2023/01/06 11:10:52;;;;;;;18.73;6.43;;;14.60;55.80;;;;;;6298179;28;20044;-73
2023/01/06 11:13:56;;;;;;;26.05;9.20;;;14.50;56.20;;;;;;6299625;28;20036;-74
2023/01/06 11:17:00;;;;;;;15.30;6.47;;;14.90;56.40;;;;;;6302968;28;20099;-74
2023/01/06 11:20:12;;;;;;;19.50;6.65;;;15.60;55.50;;;;;;6294836;28;20468;-73
2023/01/06 11:23:21;;;;;;;12.50;5.32;;;16.30;54.60;;;;;;6289463;28;20112;-74
2023/01/06 11:26:22;;;;;;;14.77;5.25;;;16.90;53.00;;;;;;6265066;28;20411;-74
2023/01/06 11:29:34;;;;;;;18.70;5.13;;;17.50;51.60;;;;;;6298144;28;20036;-73
2023/01/06 11:32:35;;;;;;;17.92;7.10;;;18.10;49.60;;;;;;6275684;28;20105;-74
2023/01/06 11:35:36;;;;;;;21.75;9.40;;;18.30;48.00;;;;;;6312224;28;20369;-72
2023/01/06 11:38:42;;;;;;;17.48;7.85;;;18.60;47.10;;;;;;6298405;28;20047;-73
2023/01/06 11:41:50;;;;;;;15.13;6.25;;;18.90;46.40;;;;;;6294014;28;20543;-73
2023/01/06 11:44:51;;;;;;;18.13;7.55;;;19.30;46.00;;;;;;6279674;28;20036;-75
2023/01/06 11:47:52;;;;;;;13.15;4.45;;;19.80;45.20;;;;;;6263341;28;20040;-74
2023/01/06 11:50:59;;;;;;;10.63;3.90;;;20.20;44.30;;;;;;6291788;28;20131;-74
2023/01/06 11:54:01;;;;;;;11.73;5.13;;;20.00;44.60;;;;;;6311627;28;20036;-73
2023/01/06 11:57:19;;;;;;;8.38;4.35;;;19.70;45.10;;;;;;6305232;28;20074;-74
2023/01/06 12:00:30;;;;;;;8.73;3.50;;;19.40;45.60;;;;;;6308182;28;20551;-74
2023/01/06 12:03:40;;;;;;;16.35;5.05;;;19.00;45.80;;;;;;6296233;28;20036;-72
2023/01/06 12:06:43;;;;;;;9.23;4.28;;;18.70;46.00;;;;;;6291338;28;20463;-74
2023/01/06 12:09:48;;;;;;;6.30;2.97;;;18.40;46.60;;;;;;6302020;28;20099;-74
2023/01/06 12:12:49;;;;;;;12.55;3.60;;;18.20;47.10;;;;;;6311071;28;20032;-73
2023/01/06 12:15:59;;;;;;;3.92;2.65;;;18.10;47.20;;;;;;6265122;28;20125;-74
2023/01/06 12:19:00;;;;;;;8.52;3.30;;;18.10;47.40;;;;;;6286266;28;20036;-72
2023/01/06 12:22:03;;;;;;;7.45;4.10;;;18.00;47.60;;;;;;6310567;28;20040;-74
2023/01/06 12:25:12;;;;;;;6.25;3.40;;;17.90;47.80;;;;;;6286074;28;20067;-73
2023/01/06 12:28:27;;;;;;;6.85;3.33;;;17.90;48.00;;;;;;6255709;28;20489;-73
2023/01/06 12:31:39;;;;;;;7.93;3.85;;;17.80;48.10;;;;;;6288682;28;20048;-73
2023/01/06 12:34:49;;;;;;;7.32;3.30;;;17.80;48.00;;;;;;6285646;28;20048;-73
2023/01/06 12:37:58;;;;;;;7.88;3.47;;;17.70;47.90;;;;;;6307379;28;20040;-72
2023/01/06 12:41:29;;;;;;;6.95;3.63;;;17.50;48.00;;;;;;6302880;28;20036;-74
2023/01/06 12:44:50;;;;;;;6.00;2.80;;;17.40;48.40;;;;;;6271071;28;20028;-74
2023/01/06 12:47:56;;;;;;;5.18;2.20;;;17.20;48.30;;;;;;6306275;28;20384;-74
2023/01/06 12:51:13;;;;;;;3.88;2.42;;;17.10;48.30;;;;;;6297086;28;20048;-73
2023/01/06 12:54:17;;;;;;;4.45;2.55;;;17.00;48.50;;;;;;6281809;28;20132;-74
2023/01/06 12:57:24;;;;;;;12.63;4.65;;;16.90;48.70;;;;;;6311040;28;20112;-74
2023/01/06 13:00:48;;;;;;;4.95;2.78;;;16.80;48.70;;;;;;6290761;28;20035;-73
2023/01/06 13:04:19;;;;;;;6.10;2.35;;;16.80;48.70;;;;;;6291317;28;20499;-73
2023/01/06 13:07:38;;;;;;;6.43;2.83;;;16.80;48.70;;;;;;6261737;28;20043;-73
2023/01/06 13:10:47;;;;;;;10.90;4.90;;;16.80;48.70;;;;;;6303024;28;20098;-72
2023/01/06 13:14:13;;;;;;;7.35;3.70;;;16.90;48.80;;;;;;6302707;28;20059;-74
2023/01/06 13:17:24;;;;;;;7.20;2.72;;;16.90;48.70;;;;;;6204289;28;20057;-73
2023/01/06 13:20:36;;;;;;;10.18;4.35;;;16.90;48.80;;;;;;6231640;28;20048;-74
2023/01/06 13:24:20;;;;;;;7.40;3.25;;;16.90;48.80;;;;;;6234430;28;20042;-72
2023/01/06 13:27:46;;;;;;;5.85;2.80;;;16.80;48.90;;;;;;6232116;28;20370;-72
2023/01/06 13:30:52;;;;;;;6.18;3.05;;;16.80;48.90;;;;;;6233561;28;20533;-72
2023/01/06 13:33:59;;;;;;;4.68;2.78;;;16.80;49.10;;;;;;6212366;28;20390;-74
2023/01/06 13:37:12;;;;;;;6.78;3.20;;;16.90;49.10;;;;;;6219077;28;20386;-72
2023/01/06 13:40:18;;;;;;;3.97;2.50;;;17.00;49.10;;;;;;6216975;28;20042;-73
2023/01/06 13:43:28;;;;;;;4.53;2.67;;;17.10;49.10;;;;;;6214392;28;20415;-74
2023/01/06 13:46:30;;;;;;;5.22;2.60;;;17.20;49.00;;;;;;6232984;28;20076;-73
2023/01/06 13:49:31;;;;;;;4.43;2.67;;;17.20;49.00;;;;;;6202053;28;20045;-71
2023/01/06 13:52:34;;;;;;;8.63;3.20;;;17.30;48.80;;;;;;6220489;28;20068;-73
2023/01/06 13:55:39;;;;;;;4.63;2.47;;;17.30;49.20;;;;;;6278810;28;20127;-73
2023/01/06 13:58:41;;;;;;;4.20;2.50;;;17.30;48.60;;;;;;6271903;28;20156;-74
2023/01/06 14:01:42;;;;;;;10.23;3.70;;;17.40;48.70;;;;;;6288262;28;20052;-73
2023/01/06 14:04:45;;;;;;;5.47;2.92;;;17.40;48.60;;;;;;6293505;28;20462;-72
2023/01/06 14:07:55;;;;;;;3.90;2.28;;;17.50;48.70;;;;;;6291064;28;20127;-72
2023/01/06 14:11:02;;;;;;;6.43;3.55;;;17.60;48.50;;;;;;6290118;28;20040;-73
2023/01/06 14:14:18;;;;;;;9.88;4.13;;;17.50;48.40;;;;;;6294938;28;20044;-73
2023/01/06 14:17:40;;;;;;;7.72;3.45;;;17.50;48.50;;;;;;6292942;28;20136;-73
2023/01/06 14:20:42;;;;;;;4.47;2.45;;;17.40;48.60;;;;;;6294120;28;20162;-72
2023/01/06 14:28:07;;;;;;;6.00;2.72;;;17.20;48.60;;;;;;6275377;28;20528;-73
2023/01/06 14:31:26;;;;;;;5.72;2.58;;;17.10;48.80;;;;;;6277029;28;20359;-73
2023/01/06 14:34:27;;;;;;;5.43;2.38;;;17.00;49.00;;;;;;6252976;28;20045;-73
2023/01/06 14:37:37;;;;;;;7.80;2.60;;;17.00;49.00;;;;;;6284732;28;20037;-73
2023/01/06 14:40:59;;;;;;;6.57;2.80;;;16.90;49.20;;;;;;6256217;28;20048;-73
2023/01/06 14:44:17;;;;;;;9.05;2.60;;;16.80;49.10;;;;;;6290238;28;20032;-73
2023/01/06 14:47:37;;;;;;;4.45;2.47;;;16.80;49.30;;;;;;6271826;28;20041;-73
2023/01/06 14:50:45;;;;;;;4.60;2.30;;;16.70;49.40;;;;;;6267018;28;20056;-74
2023/01/06 14:54:02;;;;;;;4.55;2.72;;;16.70;49.60;;;;;;6272776;28;20123;-73
2023/01/06 14:57:04;;;;;;;3.80;2.65;;;16.60;49.80;;;;;;6290700;28;20036;-74
2023/01/06 15:00:06;;;;;;;4.10;2.67;;;16.60;49.80;;;;;;6292596;28;20051;-73
2023/01/06 15:03:27;;;;;;;4.72;2.67;;;16.60;50.00;;;;;;6293394;28;20524;-73
2023/01/06 15:06:29;;;;;;;7.53;3.10;;;16.50;50.10;;;;;;6261066;28;20040;-73
2023/01/06 15:09:30;;;;;;;6.45;3.03;;;16.50;50.20;;;;;;6316313;28;20044;-72
2023/01/06 15:12:32;;;;;;;8.02;3.35;;;16.40;50.40;;;;;;6301638;28;20101;-74
2023/01/06 15:15:33;;;;;;;10.52;3.53;;;16.30;50.60;;;;;;6298442;28;20054;-73
2023/01/06 15:18:35;;;;;;;4.13;2.80;;;16.30;50.70;;;;;;6298427;28;20479;-74
2023/01/06 15:21:42;;;;;;;5.30;3.30;;;16.20;50.90;;;;;;6308556;28;20097;-74
2023/01/06 15:24:44;;;;;;;3.28;2.15;;;16.20;51.10;;;;;;6311404;28;20056;-74
2023/01/06 15:27:45;;;;;;;5.50;3.30;;;16.10;51.30;;;;;;6296851;28;20554;-73
2023/01/06 15:30:48;;;;;;;7.93;2.83;;;16.00;51.40;;;;;;6294488;28;20660;-74
2023/01/06 15:33:50;;;;;;;8.20;3.50;;;16.00;51.60;;;;;;6298175;28;20446;-74
2023/01/06 15:36:53;;;;;;;5.20;2.80;;;15.90;51.80;;;;;;6314852;28;20464;-73
2023/01/06 15:39:54;;;;;;;4.97;2.97;;;15.80;51.90;;;;;;6321538;28;20048;-74
2023/01/06 15:42:55;;;;;;;4.28;2.70;;;15.70;52.10;;;;;;6310021;28;20534;-73
2023/01/06 15:46:05;;;;;;;12.73;2.88;;;15.70;52.30;;;;;;6319810;28;20039;-74
2023/01/06 15:49:24;;;;;;;5.25;2.72;;;15.60;52.40;;;;;;6282248;28;20473;-73
2023/01/06 15:52:29;;;;;;;5.00;3.20;;;15.60;52.50;;;;;;6294856;28;20032;-72
2023/01/06 15:55:41;;;;;;;5.40;2.97;;;15.60;52.60;;;;;;6284193;28;20032;-73
2023/01/06 15:58:42;;;;;;;9.15;3.60;;;15.50;52.70;;;;;;6316442;28;20127;-74
2023/01/06 16:01:53;;;;;;;7.35;2.83;;;15.50;52.90;;;;;;6302196;28;20373;-73
2023/01/06 16:04:57;;;;;;;4.20;2.60;;;15.40;53.00;;;;;;6301355;28;20157;-73
2023/01/06 16:08:14;;;;;;;5.93;2.92;;;15.40;53.00;;;;;;6297580;28;20036;-74